Wetterdaten: Woche 02.09.13 - 08.09.13 (KW36)
Datum Zeit Temp. Aussen +5cm Feuchte Auss Luftdruck Regen Sonnenschein Regendauer UV Solar Windben
02.09.2013 00:00 14,2 C 13,1 C 79 % 1026,0 hPa 0,0 l/m 0,00 h 0,00 h 0,0 UV-I 0 W/m 0,8 km/h (0 Bft)
02.09.2013 01:00 14,2 C 13,2 C 79 % 1025,3 hPa 0,0 l/m 0,00 h 0,00 h 0,0 UV-I 0 W/m 1,6 km/h (1 Bft)
02.09.2013 02:00 14,2 C 13,1 C 79 % 1024,7 hPa 0,0 l/m 0,00 h 0,00 h 0,0 UV-I 0 W/m 3,7 km/h (1 Bft)
02.09.2013 03:00 14,2 C 13,0 C 78 % 1024,1 hPa 0,0 l/m 0,00 h 0,00 h 0,0 UV-I 0 W/m 4,2 km/h (1 Bft)
02.09.2013 04:00 13,8 C 12,5 C 80 % 1023,5 hPa 0,0 l/m 0,00 h 0,00 h 0,0 UV-I 0 W/m 5,6 km/h (1 Bft)
02.09.2013 05:00 13,1 C 11,9 C 83 % 1023,2 hPa 0,0 l/m 0,00 h 0,00 h 0,0 UV-I 0 W/m 3,6 km/h (1 Bft)
02.09.2013 06:00 12,8 C 12,0 C 86 % 1023,1 hPa 0,0 l/m 0,00 h 0,00 h 0,0 UV-I 0 W/m 6,0 km/h (2 Bft)
02.09.2013 07:00 12,9 C 12,0 C 88 % 1023,3 hPa 0,0 l/m 0,00 h 0,00 h 0,0 UV-I 33 W/m 5,3 km/h (1 Bft)
02.09.2013 08:00 13,2 C 12,6 C 90 % 1023,6 hPa 0,0 l/m 0,07 h 0,00 h 0,0 UV-I 100 W/m 3,6 km/h (1 Bft)
02.09.2013 09:00 14,6 C 14,4 C 88 % 1023,8 hPa 0,0 l/m 0,43 h 0,00 h 0,7 UV-I 254 W/m 9,5 km/h (2 Bft)
02.09.2013 10:00 16,2 C 16,1 C 80 % 1024,0 hPa 0,0 l/m 0,03 h 0,00 h 0,6 UV-I 196 W/m 12,1 km/h (2 Bft)
02.09.2013 11:00 17,0 C 17,4 C 77 % 1024,2 hPa 0,0 l/m 0,07 h 0,00 h 1,4 UV-I 274 W/m 11,5 km/h (2 Bft)
02.09.2013 12:00 18,8 C 19,2 C 72 % 1023,9 hPa 0,0 l/m 0,37 h 0,00 h 2,4 UV-I 473 W/m 14,5 km/h (3 Bft)
02.09.2013 13:00 19,7 C 20,2 C 70 % 1024,0 hPa 0,0 l/m 0,17 h 0,00 h 2,0 UV-I 339 W/m 15,5 km/h (3 Bft)
02.09.2013 14:00 20,0 C 20,4 C 71 % 1024,0 hPa 0,0 l/m 0,07 h 0,00 h 1,8 UV-I 325 W/m 15,6 km/h (3 Bft)
02.09.2013 15:00 20,4 C 20,5 C 71 % 1023,9 hPa 0,0 l/m 0,03 h 0,00 h 1,1 UV-I 235 W/m 13,5 km/h (3 Bft)
02.09.2013 16:00 20,9 C 20,8 C 71 % 1023,8 hPa 0,0 l/m 0,00 h 0,00 h 0,8 UV-I 213 W/m 13,5 km/h (3 Bft)
02.09.2013 17:00 21,0 C 20,6 C 71 % 1023,7 hPa 0,0 l/m 0,00 h 0,00 h 0,0 UV-I 136 W/m 11,1 km/h (2 Bft)
02.09.2013 18:00 20,9 C 20,0 C 72 % 1023,8 hPa 0,0 l/m 0,00 h 0,00 h 0,0 UV-I 56 W/m 7,6 km/h (2 Bft)
02.09.2013 19:00 20,6 C 19,3 C 73 % 1024,0 hPa 0,0 l/m 0,00 h 0,00 h 0,0 UV-I 23 W/m 7,5 km/h (2 Bft)
02.09.2013 20:00 19,9 C 18,4 C 76 % 1024,6 hPa 0,0 l/m 0,00 h 0,00 h 0,0 UV-I 8 W/m 1,9 km/h (1 Bft)
02.09.2013 21:00 18,5 C 16,8 C 80 % 1025,3 hPa 0,0 l/m 0,00 h 0,00 h 0,0 UV-I 0 W/m 1,0 km/h (0 Bft)
02.09.2013 22:00 17,5 C 15,7 C 82 % 1025,8 hPa 0,0 l/m 0,00 h 0,00 h 0,0 UV-I 0 W/m 0,7 km/h (0 Bft)
02.09.2013 23:00 16,1 C 14,0 C 87 % 1026,2 hPa 0,0 l/m 0,00 h 0,00 h 0,0 UV-I 0 W/m 0,0 km/h (0 Bft)
03.09.2013 00:00 15,1 C 13,1 C 91 % 1026,3 hPa 0,0 l/m 0,00 h 0,00 h 0,0 UV-I 0 W/m 0,0 km/h (0 Bft)
03.09.2013 01:00 14,8 C 13,1 C 92 % 1026,2 hPa 0,0 l/m 0,00 h 0,00 h 0,0 UV-I 0 W/m 0,0 km/h (0 Bft)
03.09.2013 02:00 15,4 C 14,0 C 91 % 1025,9 hPa 0,0 l/m 0,00 h 0,00 h 0,0 UV-I 0 W/m 0,1 km/h (0 Bft)
03.09.2013 03:00 15,8 C 14,9 C 90 % 1025,9 hPa 0,0 l/m 0,00 h 0,00 h 0,0 UV-I 0 W/m 2,0 km/h (1 Bft)
03.09.2013 04:00 15,3 C 13,7 C 90 % 1025,6 hPa 0,0 l/m 0,00 h 0,00 h 0,0 UV-I 0 W/m 1,0 km/h (0 Bft)
03.09.2013 05:00 14,2 C 12,4 C 93 % 1025,4 hPa 0,0 l/m 0,00 h 0,00 h 0,0 UV-I 0 W/m 0,0 km/h (0 Bft)
03.09.2013 06:00 13,6 C 12,0 C 94 % 1025,8 hPa 0,0 l/m 0,00 h 0,00 h 0,0 UV-I 5 W/m 0,1 km/h (0 Bft)
03.09.2013 07:00 13,5 C 12,3 C 95 % 1026,3 hPa 0,0 l/m 0,00 h 0,00 h 0,0 UV-I 24 W/m 0,6 km/h (0 Bft)
03.09.2013 08:00 14,6 C 13,7 C 93 % 1026,7 hPa 0,0 l/m 0,00 h 0,00 h 0,0 UV-I 93 W/m 1,2 km/h (1 Bft)
03.09.2013 09:00 16,6 C 16,1 C 89 % 1027,0 hPa 0,0 l/m 0,40 h 0,00 h 0,0 UV-I 217 W/m 1,5 km/h (1 Bft)
03.09.2013 10:00 17,9 C 18,0 C 87 % 1027,4 hPa 0,0 l/m 0,00 h 0,00 h 0,7 UV-I 200 W/m 0,2 km/h (0 Bft)
03.09.2013 11:00 19,6 C 19,9 C 83 % 1027,5 hPa 0,0 l/m 0,00 h 0,00 h 1,2 UV-I 253 W/m 0,5 km/h (0 Bft)
03.09.2013 12:00 21,5 C 22,1 C 76 % 1027,3 hPa 0,0 l/m 0,00 h 0,00 h 1,9 UV-I 330 W/m 2,6 km/h (1 Bft)
03.09.2013 13:00 22,4 C 23,4 C 72 % 1027,2 hPa 0,0 l/m 0,17 h 0,00 h 2,2 UV-I 373 W/m 3,2 km/h (1 Bft)
03.09.2013 14:00 22,5 C 23,3 C 70 % 1027,0 hPa 0,0 l/m 0,07 h 0,00 h 2,0 UV-I 328 W/m 4,6 km/h (1 Bft)
03.09.2013 15:00 22,9 C 23,1 C 69 % 1026,7 hPa 0,0 l/m 0,10 h 0,00 h 1,2 UV-I 248 W/m 3,1 km/h (1 Bft)
03.09.2013 16:00 22,7 C 22,8 C 70 % 1026,6 hPa 0,0 l/m 0,07 h 0,00 h 0,9 UV-I 238 W/m 7,0 km/h (2 Bft)
03.09.2013 17:00 22,8 C 22,6 C 69 % 1026,3 hPa 0,0 l/m 0,10 h 0,00 h 0,5 UV-I 175 W/m 2,0 km/h (1 Bft)
03.09.2013 18:00 22,4 C 21,6 C 71 % 1026,0 hPa 0,0 l/m 0,00 h 0,00 h 0,0 UV-I 82 W/m 1,8 km/h (1 Bft)
03.09.2013 19:00 21,8 C 20,7 C 72 % 1026,0 hPa 0,0 l/m 0,00 h 0,00 h 0,0 UV-I 36 W/m 1,0 km/h (0 Bft)
03.09.2013 20:00 19,7 C 17,5 C 80 % 1026,1 hPa 0,0 l/m 0,00 h 0,00 h 0,0 UV-I 7 W/m 0,0 km/h (0 Bft)
03.09.2013 21:00 17,7 C 15,6 C 88 % 1026,4 hPa 0,0 l/m 0,00 h 0,00 h 0,0 UV-I 0 W/m 0,0 km/h (0 Bft)
03.09.2013 22:00 16,6 C 14,7 C 92 % 1026,1 hPa 0,0 l/m 0,00 h 0,00 h 0,0 UV-I 0 W/m 0,0 km/h (0 Bft)
03.09.2013 23:00 15,8 C 14,0 C 93 % 1026,0 hPa 0,0 l/m 0,00 h 0,00 h 0,0 UV-I 0 W/m 0,0 km/h (0 Bft)
04.09.2013 00:00 15,1 C 13,3 C 94 % 1025,8 hPa 0,0 l/m 0,00 h 0,00 h 0,0 UV-I 0 W/m 0,0 km/h (0 Bft)
04.09.2013 01:00 14,4 C 12,7 C 95 % 1025,5 hPa 0,0 l/m 0,00 h 0,00 h 0,0 UV-I 0 W/m 0,0 km/h (0 Bft)
04.09.2013 02:00 14,0 C 12,2 C 96 % 1025,2 hPa 0,0 l/m 0,00 h 0,00 h 0,0 UV-I 0 W/m 0,0 km/h (0 Bft)
04.09.2013 03:00 13,4 C 11,8 C 96 % 1024,9 hPa 0,0 l/m 0,00 h 0,00 h 0,0 UV-I 0 W/m 0,0 km/h (0 Bft)
04.09.2013 04:00 12,9 C 11,6 C 96 % 1024,8 hPa 0,0 l/m 0,00 h 0,00 h 0,0 UV-I 0 W/m 0,0 km/h (0 Bft)
04.09.2013 05:00 12,6 C 11,0 C 97 % 1024,4 hPa 0,0 l/m 0,00 h 0,00 h 0,0 UV-I 0 W/m 0,0 km/h (0 Bft)
04.09.2013 06:00 12,0 C 10,5 C 97 % 1024,4 hPa 0,0 l/m 0,00 h 0,00 h 0,0 UV-I 6 W/m 0,0 km/h (0 Bft)
04.09.2013 07:00 12,0 C 10,7 C 97 % 1024,2 hPa 0,0 l/m 0,00 h 0,00 h 0,0 UV-I 22 W/m 0,0 km/h (0 Bft)
04.09.2013 08:00 14,2 C 12,9 C 97 % 1024,0 hPa 0,0 l/m 0,50 h 0,00 h 0,0 UV-I 120 W/m 0,1 km/h (0 Bft)
04.09.2013 09:00 17,8 C 16,0 C 89 % 1023,9 hPa 0,0 l/m 0,97 h 0,00 h 0,7 UV-I 301 W/m 5,3 km/h (1 Bft)
04.09.2013 10:00 20,7 C 19,1 C 79 % 1023,8 hPa 0,0 l/m 0,97 h 0,00 h 1,5 UV-I 445 W/m 5,5 km/h (1 Bft)
04.09.2013 11:00 22,9 C 21,9 C 72 % 1023,6 hPa 0,0 l/m 0,97 h 0,00 h 2,4 UV-I 554 W/m 4,9 km/h (1 Bft)
04.09.2013 12:00 24,3 C 23,5 C 66 % 1023,2 hPa 0,0 l/m 0,97 h 0,00 h 2,9 UV-I 624 W/m 4,7 km/h (1 Bft)
04.09.2013 13:00 25,9 C 24,9 C 62 % 1022,4 hPa 0,0 l/m 0,97 h 0,00 h 2,5 UV-I 652 W/m 6,1 km/h (2 Bft)
04.09.2013 14:00 27,2 C 25,8 C 58 % 1021,6 hPa 0,0 l/m 0,97 h 0,00 h 3,3 UV-I 638 W/m 5,7 km/h (1 Bft)
04.09.2013 15:00 28,2 C 26,7 C 55 % 1020,9 hPa 0,0 l/m 0,97 h 0,00 h 2,8 UV-I 582 W/m 6,8 km/h (2 Bft)
04.09.2013 16:00 28,3 C 26,9 C 54 % 1020,1 hPa 0,0 l/m 0,97 h 0,00 h 1,9 UV-I 470 W/m 4,6 km/h (1 Bft)
04.09.2013 17:00 28,4 C 26,3 C 53 % 1019,6 hPa 0,0 l/m 0,77 h 0,00 h 1,0 UV-I 296 W/m 2,7 km/h (1 Bft)
04.09.2013 18:00 27,6 C 24,8 C 55 % 1019,3 hPa 0,0 l/m 0,10 h 0,00 h 0,5 UV-I 67 W/m 1,4 km/h (1 Bft)
04.09.2013 19:00 25,7 C 18,2 C 61 % 1018,9 hPa 0,0 l/m 0,00 h 0,00 h 0,0 UV-I 24 W/m 0,2 km/h (0 Bft)
04.09.2013 20:00 22,3 C 17,2 C 75 % 1018,9 hPa 0,0 l/m 0,00 h 0,00 h 0,0 UV-I 6 W/m 0,0 km/h (0 Bft)
04.09.2013 21:00 20,3 C 16,5 C 82 % 1018,8 hPa 0,0 l/m 0,00 h 0,00 h 0,0 UV-I 0 W/m 0,0 km/h (0 Bft)
04.09.2013 22:00 20,1 C 16,1 C 81 % 1018,4 hPa 0,0 l/m 0,00 h 0,00 h 0,0 UV-I 0 W/m 0,0 km/h (0 Bft)
04.09.2013 23:00 19,6 C 15,7 C 82 % 1018,0 hPa 0,0 l/m 0,00 h 0,00 h 0,0 UV-I 0 W/m 0,0 km/h (0 Bft)
05.09.2013 00:00 18,1 C 15,2 C 87 % 1017,9 hPa 0,0 l/m 0,00 h 0,00 h 0,0 UV-I 0 W/m 0,0 km/h (0 Bft)
05.09.2013 01:00 16,9 C 14,4 C 91 % 1017,6 hPa 0,0 l/m 0,00 h 0,00 h 0,0 UV-I 0 W/m 0,0 km/h (0 Bft)
05.09.2013 02:00 16,3 C 13,9 C 93 % 1017,3 hPa 0,0 l/m 0,00 h 0,00 h 0,0 UV-I 0 W/m 0,0 km/h (0 Bft)
05.09.2013 03:00 15,9 C 13,5 C 94 % 1017,1 hPa 0,0 l/m 0,00 h 0,00 h 0,0 UV-I 0 W/m 0,0 km/h (0 Bft)
05.09.2013 04:00 16,3 C 14,2 C 92 % 1016,5 hPa 0,0 l/m 0,00 h 0,00 h 0,0 UV-I 0 W/m 1,1 km/h (0 Bft)
05.09.2013 05:00 16,5 C 14,4 C 90 % 1016,0 hPa 0,0 l/m 0,00 h 0,00 h 0,0 UV-I 0 W/m 0,6 km/h (0 Bft)
05.09.2013 06:00 16,3 C 14,2 C 91 % 1015,7 hPa 0,0 l/m 0,00 h 0,00 h 0,0 UV-I 6 W/m 0,5 km/h (0 Bft)
05.09.2013 07:00 16,5 C 14,6 C 91 % 1015,5 hPa 0,0 l/m 0,00 h 0,00 h 0,0 UV-I 19 W/m 3,7 km/h (1 Bft)
05.09.2013 08:00 18,4 C 16,7 C 86 % 1015,3 hPa 0,0 l/m 0,50 h 0,00 h 0,0 UV-I 128 W/m 13,5 km/h (3 Bft)
05.09.2013 09:00 21,4 C 19,0 C 78 % 1015,1 hPa 0,0 l/m 0,97 h 0,00 h 0,7 UV-I 327 W/m 8,8 km/h (2 Bft)
05.09.2013 10:00 24,2 C 21,9 C 69 % 1014,8 hPa 0,0 l/m 0,97 h 0,00 h 1,6 UV-I 461 W/m 16,0 km/h (3 Bft)
05.09.2013 11:00 26,5 C 24,7 C 63 % 1014,1 hPa 0,0 l/m 0,97 h 0,00 h 2,6 UV-I 570 W/m 17,4 km/h (3 Bft)
05.09.2013 12:00 28,5 C 27,2 C 58 % 1013,5 hPa 0,0 l/m 0,97 h 0,00 h 3,1 UV-I 639 W/m 14,6 km/h (3 Bft)
05.09.2013 13:00 30,2 C 28,4 C 53 % 1013,1 hPa 0,0 l/m 0,97 h 0,00 h 2,5 UV-I 669 W/m 10,5 km/h (2 Bft)
05.09.2013 14:00 31,5 C 29,6 C 48 % 1012,5 hPa 0,0 l/m 0,97 h 0,00 h 3,5 UV-I 644 W/m 11,0 km/h (2 Bft)
05.09.2013 15:00 32,2 C 30,3 C 48 % 1011,9 hPa 0,0 l/m 0,97 h 0,00 h 2,8 UV-I 574 W/m 8,2 km/h (2 Bft)
05.09.2013 16:00 32,4 C 30,5 C 48 % 1011,2 hPa 0,0 l/m 0,97 h 0,00 h 1,9 UV-I 463 W/m 7,4 km/h (2 Bft)
05.09.2013 17:00 32,3 C 29,8 C 48 % 1010,7 hPa 0,0 l/m 0,97 h 0,00 h 1,1 UV-I 327 W/m 10,1 km/h (2 Bft)
05.09.2013 18:00 31,3 C 28,2 C 49 % 1010,2 hPa 0,0 l/m 0,03 h 0,00 h 0,6 UV-I 53 W/m 5,9 km/h (2 Bft)
05.09.2013 19:00 29,6 C 26,2 C 54 % 1009,9 hPa 0,0 l/m 0,00 h 0,00 h 0,0 UV-I 23 W/m 3,8 km/h (1 Bft)
05.09.2013 20:00 27,3 C 23,9 C 59 % 1010,0 hPa 0,0 l/m 0,00 h 0,00 h 0,0 UV-I 6 W/m 1,5 km/h (1 Bft)
05.09.2013 21:00 25,4 C 22,6 C 64 % 1010,2 hPa 0,0 l/m 0,00 h 0,00 h 0,0 UV-I 0 W/m 2,9 km/h (1 Bft)
05.09.2013 22:00 24,3 C 21,5 C 67 % 1010,2 hPa 0,0 l/m 0,00 h 0,00 h 0,0 UV-I 0 W/m 1,6 km/h (1 Bft)
05.09.2013 23:00 23,2 C 20,8 C 70 % 1010,1 hPa 0,0 l/m 0,00 h 0,00 h 0,0 UV-I 0 W/m 2,5 km/h (1 Bft)
06.09.2013 00:00 22,0 C 19,6 C 74 % 1009,9 hPa 0,0 l/m 0,00 h 0,00 h 0,0 UV-I 0 W/m 0,9 km/h (0 Bft)
06.09.2013 01:00 21,1 C 18,9 C 77 % 1009,5 hPa 0,0 l/m 0,00 h 0,00 h 0,0 UV-I 0 W/m 3,5 km/h (1 Bft)
06.09.2013 02:00 20,5 C 18,6 C 77 % 1009,0 hPa 0,0 l/m 0,00 h 0,00 h 0,0 UV-I 0 W/m 6,8 km/h (2 Bft)
06.09.2013 03:00 20,1 C 18,2 C 77 % 1008,5 hPa 0,0 l/m 0,00 h 0,00 h 0,0 UV-I 0 W/m 6,6 km/h (2 Bft)
06.09.2013 04:00 19,3 C 17,8 C 80 % 1008,1 hPa 0,0 l/m 0,00 h 0,00 h 0,0 UV-I 0 W/m 2,5 km/h (1 Bft)
06.09.2013 05:00 19,3 C 17,6 C 79 % 1007,8 hPa 0,0 l/m 0,00 h 0,00 h 0,0 UV-I 0 W/m 5,6 km/h (1 Bft)
06.09.2013 06:00 18,8 C 16,9 C 80 % 1007,8 hPa 0,0 l/m 0,00 h 0,00 h 0,0 UV-I 5 W/m 1,4 km/h (1 Bft)
06.09.2013 07:00 18,7 C 17,0 C 81 % 1007,9 hPa 0,0 l/m 0,00 h 0,00 h 0,0 UV-I 21 W/m 5,7 km/h (1 Bft)
06.09.2013 08:00 20,1 C 18,5 C 77 % 1008,2 hPa 0,0 l/m 0,50 h 0,00 h 0,0 UV-I 125 W/m 9,0 km/h (2 Bft)
06.09.2013 09:00 22,7 C 20,6 C 70 % 1008,2 hPa 0,0 l/m 0,97 h 0,00 h 0,7 UV-I 311 W/m 12,9 km/h (3 Bft)
06.09.2013 10:00 25,5 C 23,3 C 63 % 1008,2 hPa 0,0 l/m 0,97 h 0,00 h 1,4 UV-I 440 W/m 12,3 km/h (3 Bft)
06.09.2013 11:00 27,9 C 26,3 C 57 % 1007,8 hPa 0,0 l/m 0,97 h 0,00 h 2,4 UV-I 551 W/m 10,9 km/h (2 Bft)
06.09.2013 12:00 29,8 C 28,5 C 53 % 1007,5 hPa 0,0 l/m 0,97 h 0,00 h 2,9 UV-I 626 W/m 11,0 km/h (2 Bft)
06.09.2013 13:00 31,5 C 29,9 C 48 % 1007,1 hPa 0,0 l/m 0,97 h 0,00 h 2,4 UV-I 652 W/m 10,0 km/h (2 Bft)
06.09.2013 14:00 32,3 C 30,5 C 45 % 1006,6 hPa 0,0 l/m 0,57 h 0,00 h 2,7 UV-I 470 W/m 8,2 km/h (2 Bft)
06.09.2013 15:00 29,8 C 27,7 C 53 % 1006,8 hPa 0,0 l/m 0,17 h 0,17 h 1,1 UV-I 217 W/m 10,7 km/h (2 Bft)
06.09.2013 16:00 26,6 C 26,0 C 59 % 1007,8 hPa 0,0 l/m 0,53 h 0,00 h 1,2 UV-I 359 W/m 10,9 km/h (2 Bft)
06.09.2013 17:00 25,8 C 25,2 C 65 % 1007,9 hPa 0,0 l/m 0,00 h 0,00 h 0,6 UV-I 124 W/m 4,3 km/h (1 Bft)
06.09.2013 18:00 25,5 C 24,3 C 67 % 1008,4 hPa 0,0 l/m 0,00 h 0,00 h 0,0 UV-I 62 W/m 1,8 km/h (1 Bft)
06.09.2013 19:00 23,6 C 21,2 C 80 % 1009,4 hPa 1,4 l/m 0,00 h 0,47 h 0,0 UV-I 19 W/m 1,8 km/h (1 Bft)
06.09.2013 20:00 20,8 C 18,8 C 95 % 1010,2 hPa 0,0 l/m 0,00 h 0,00 h 0,0 UV-I 7 W/m 0,0 km/h (0 Bft)
06.09.2013 21:00 20,1 C 18,2 C 97 % 1010,8 hPa 0,0 l/m 0,00 h 0,00 h 0,0 UV-I 0 W/m 0,0 km/h (0 Bft)
06.09.2013 22:00 19,2 C 17,3 C 97 % 1011,4 hPa 0,0 l/m 0,00 h 0,00 h 0,0 UV-I 0 W/m 0,0 km/h (0 Bft)
06.09.2013 23:00 18,6 C 16,8 C 98 % 1011,8 hPa 0,0 l/m 0,00 h 0,00 h 0,0 UV-I 0 W/m 0,0 km/h (0 Bft)
07.09.2013 00:00 17,9 C 16,1 C 98 % 1012,1 hPa 0,0 l/m 0,00 h 0,00 h 0,0 UV-I 0 W/m 0,0 km/h (0 Bft)
07.09.2013 01:00 17,3 C 15,6 C 98 % 1012,2 hPa 0,0 l/m 0,00 h 0,00 h 0,0 UV-I 0 W/m 0,0 km/h (0 Bft)
07.09.2013 02:00 17,4 C 16,0 C 98 % 1013,0 hPa 0,2 l/m 0,00 h 0,10 h 0,0 UV-I 0 W/m 0,0 km/h (0 Bft)
07.09.2013 03:00 17,4 C 16,1 C 98 % 1013,4 hPa 0,6 l/m 0,00 h 0,60 h 0,0 UV-I 0 W/m 0,0 km/h (0 Bft)
07.09.2013 04:00 17,2 C 15,9 C 98 % 1013,5 hPa 0,0 l/m 0,00 h 0,23 h 0,0 UV-I 0 W/m 0,0 km/h (0 Bft)
07.09.2013 05:00 16,9 C 15,6 C 99 % 1013,9 hPa 0,0 l/m 0,00 h 0,00 h 0,0 UV-I 0 W/m 0,0 km/h (0 Bft)
07.09.2013 06:00 16,7 C 15,3 C 99 % 1014,2 hPa 0,0 l/m 0,00 h 0,00 h 0,0 UV-I 0 W/m 0,0 km/h (0 Bft)
07.09.2013 07:00 16,4 C 15,1 C 99 % 1015,0 hPa 0,2 l/m 0,00 h 0,00 h 0,0 UV-I 27 W/m 0,0 km/h (0 Bft)
07.09.2013 08:00 17,1 C 16,2 C 99 % 1015,5 hPa 0,0 l/m 0,00 h 0,00 h 0,0 UV-I 76 W/m 0,0 km/h (0 Bft)
07.09.2013 09:00 17,8 C 16,7 C 99 % 1016,2 hPa 0,0 l/m 0,00 h 0,00 h 0,0 UV-I 97 W/m 1,0 km/h (0 Bft)
07.09.2013 10:00 18,1 C 16,7 C 95 % 1016,8 hPa 0,0 l/m 0,00 h 0,00 h 0,0 UV-I 73 W/m 1,6 km/h (1 Bft)
07.09.2013 11:00 18,3 C 17,1 C 93 % 1017,0 hPa 0,0 l/m 0,00 h 0,03 h 1,0 UV-I 128 W/m 2,5 km/h (1 Bft)
07.09.2013 12:00 19,7 C 19,2 C 88 % 1017,3 hPa 0,0 l/m 0,10 h 0,00 h 1,3 UV-I 276 W/m 4,2 km/h (1 Bft)
07.09.2013 13:00 19,4 C 18,5 C 86 % 1017,7 hPa 0,0 l/m 0,00 h 0,00 h 0,7 UV-I 112 W/m 2,4 km/h (1 Bft)
07.09.2013 14:00 19,4 C 18,8 C 87 % 1018,1 hPa 0,0 l/m 0,00 h 0,00 h 0,7 UV-I 153 W/m 0,3 km/h (0 Bft)
07.09.2013 15:00 20,1 C 20,1 C 83 % 1018,2 hPa 0,0 l/m 0,03 h 0,00 h 1,0 UV-I 268 W/m 4,4 km/h (1 Bft)
07.09.2013 16:00 20,2 C 19,8 C 80 % 1018,0 hPa 0,0 l/m 0,00 h 0,00 h 0,6 UV-I 165 W/m 2,0 km/h (1 Bft)
07.09.2013 17:00 19,8 C 18,9 C 81 % 1018,0 hPa 0,0 l/m 0,00 h 0,07 h 0,0 UV-I 75 W/m 1,1 km/h (0 Bft)
07.09.2013 18:00 18,8 C 17,2 C 82 % 1018,5 hPa 0,2 l/m 0,00 h 0,40 h 0,0 UV-I 20 W/m 0,8 km/h (0 Bft)
07.09.2013 19:00 16,4 C 14,5 C 92 % 1018,9 hPa 1,0 l/m 0,00 h 0,80 h 0,0 UV-I 7 W/m 0,0 km/h (0 Bft)
07.09.2013 20:00 15,7 C 14,1 C 95 % 1018,9 hPa 0,2 l/m 0,00 h 0,17 h 0,0 UV-I 0 W/m 0,0 km/h (0 Bft)
07.09.2013 21:00 15,5 C 14,0 C 96 % 1018,8 hPa 0,0 l/m 0,00 h 0,33 h 0,0 UV-I 0 W/m 0,0 km/h (0 Bft)
07.09.2013 22:00 15,2 C 13,9 C 96 % 1018,7 hPa 0,0 l/m 0,00 h 0,00 h 0,0 UV-I 0 W/m 0,0 km/h (0 Bft)
07.09.2013 23:00 15,1 C 13,9 C 97 % 1018,6 hPa 0,0 l/m 0,00 h 0,00 h 0,0 UV-I 0 W/m 0,0 km/h (0 Bft)
08.09.2013 00:00 15,1 C 13,7 C 97 % 1018,2 hPa 0,0 l/m 0,00 h 0,00 h 0,0 UV-I 0 W/m 0,1 km/h (0 Bft)
08.09.2013 01:00 15,1 C 13,7 C 96 % 1017,9 hPa 0,0 l/m 0,00 h 0,00 h 0,0 UV-I 0 W/m 0,0 km/h (0 Bft)
08.09.2013 02:00 15,0 C 13,9 C 97 % 1017,5 hPa 0,0 l/m 0,00 h 0,00 h 0,0 UV-I 0 W/m 0,6 km/h (0 Bft)
08.09.2013 03:00 15,1 C 13,9 C 97 % 1017,1 hPa 0,0 l/m 0,00 h 0,20 h 0,0 UV-I 0 W/m 0,4 km/h (0 Bft)
08.09.2013 04:00 14,6 C 13,3 C 97 % 1017,0 hPa 0,2 l/m 0,00 h 0,62 h 0,0 UV-I 0 W/m 0,9 km/h (0 Bft)
08.09.2013 05:00 13,1 C 11,9 C 96 % 1016,4 hPa 4,2 l/m 0,00 h 0,97 h 0,0 UV-I 0 W/m 5,2 km/h (1 Bft)
08.09.2013 06:00 12,5 C 11,7 C 98 % 1016,7 hPa 7,6 l/m 0,00 h 0,97 h 0,0 UV-I 0 W/m 3,3 km/h (1 Bft)
08.09.2013 07:00 12,5 C 11,5 C 98 % 1016,6 hPa 6,6 l/m 0,00 h 0,97 h 0,0 UV-I 8 W/m 7,4 km/h (2 Bft)
08.09.2013 08:00 12,4 C 11,5 C 99 % 1016,9 hPa 1,2 l/m 0,00 h 0,97 h 0,0 UV-I 36 W/m 5,2 km/h (1 Bft)
08.09.2013 09:00 12,4 C 11,7 C 99 % 1018,0 hPa 0,2 l/m 0,00 h 0,67 h 0,0 UV-I 22 W/m 0,4 km/h (0 Bft)
08.09.2013 10:00 12,3 C 11,5 C 98 % 1018,9 hPa 0,2 l/m 0,00 h 0,63 h 0,0 UV-I 34 W/m 2,0 km/h (1 Bft)
08.09.2013 11:00 12,4 C 11,7 C 99 % 1019,4 hPa 0,0 l/m 0,00 h 0,30 h 0,0 UV-I 62 W/m 1,1 km/h (0 Bft)
08.09.2013 12:00 12,7 C 11,9 C 98 % 1019,5 hPa 0,0 l/m 0,00 h 0,00 h 0,5 UV-I 107 W/m 5,3 km/h (1 Bft)
08.09.2013 13:00 13,6 C 13,0 C 97 % 1019,5 hPa 0,0 l/m 0,00 h 0,00 h 1,0 UV-I 239 W/m 2,5 km/h (1 Bft)
08.09.2013 14:00 14,6 C 14,6 C 92 % 1019,8 hPa 0,0 l/m 0,23 h 0,00 h 1,5 UV-I 325 W/m 1,2 km/h (1 Bft)
08.09.2013 15:00 15,5 C 15,5 C 89 % 1020,2 hPa 0,0 l/m 0,13 h 0,00 h 1,0 UV-I 265 W/m 0,9 km/h (0 Bft)
08.09.2013 16:00 16,2 C 16,3 C 85 % 1020,1 hPa 0,0 l/m 0,20 h 0,00 h 0,8 UV-I 261 W/m 0,0 km/h (0 Bft)
08.09.2013 17:00 16,7 C 16,6 C 82 % 1020,0 hPa 0,2 l/m 0,53 h 0,00 h 0,5 UV-I 226 W/m 0,7 km/h (0 Bft)
08.09.2013 18:00 16,3 C 15,2 C 83 % 1019,7 hPa 0,0 l/m 0,10 h 0,00 h 0,0 UV-I 76 W/m 1,5 km/h (1 Bft)
08.09.2013 19:00 15,1 C 13,6 C 88 % 1019,3 hPa 0,0 l/m 0,00 h 0,00 h 0,0 UV-I 20 W/m 0,1 km/h (0 Bft)
08.09.2013 20:00 13,8 C 12,1 C 93 % 1019,3 hPa 0,0 l/m 0,00 h 0,00 h 0,0 UV-I 0 W/m 0,0 km/h (0 Bft)
08.09.2013 21:00 13,1 C 11,7 C 96 % 1019,4 hPa 0,0 l/m 0,00 h 0,00 h 0,0 UV-I 0 W/m 0,0 km/h (0 Bft)
08.09.2013 22:00 13,0 C 11,7 C 97 % 1019,4 hPa 0,0 l/m 0,00 h 0,00 h 0,0 UV-I 0 W/m 0,0 km/h (0 Bft)
08.09.2013 23:00 12,7 C 11,3 C 98 % 1019,2 hPa 0,0 l/m 0,00 h 0,00 h 0,0 UV-I 0 W/m 0,0 km/h (0 Bft)
Min-Datum _ 04.09.13 04.09.13 06.09.13 06.09.13 - - - - - 02.09.13
_ Min-Zeit 07:02 06:48 14:36 15:06 - - - - - 00:00
Minimum _ 11,7 C 10,0 C 43 % 1006,3 hPa - - - - - 0,0 km/h (0 Bft)
Max-Datum _ 06.09.13 05.09.13 07.09.13 03.09.13 08.09.13 02.09.13 06.09.13 02.09.13 02.09.13 02.09.13
_ Max-Zeit 14:34 16:36 04:46 11:16 06:06 08:48 15:14 12:38 12:36 16:18
Maximum _ 32,9 C 31,1 C 99 % 1027,6 hPa 7,6 l/m 0,03 h 0,03 h 3,8 UV-I 889 W/m 30,9 km/h
SW (5 Bft)
Durchschnitt _ 19,1 C 17,7 C 82 % 1018,6 hPa #24,2 l/m #28:24 h #9:39 h 1,5 UV-I 221 W/m 3,5 km/h (1 Bft)
© 2013 W. Hausmann